sensor_id;sensor_type;location;lat;lon;timestamp;pressure;altitude;pressure_sealevel;temperature;humidity
28004;BME280;15330;51.234;6.754;2023-02-13T00:02:08;103246.38;;;8.57;95.32
28004;BME280;15330;51.234;6.754;2023-02-13T00:04:34;103246.44;;;8.55;95.30
28004;BME280;15330;51.234;6.754;2023-02-13T00:07:00;103241.50;;;8.63;94.48
28004;BME280;15330;51.234;6.754;2023-02-13T00:09:25;103238.94;;;8.62;94.47
28004;BME280;15330;51.234;6.754;2023-02-13T00:11:50;103230.34;;;8.57;94.89
28004;BME280;15330;51.234;6.754;2023-02-13T00:14:16;103237.97;;;8.63;94.62
28004;BME280;15330;51.234;6.754;2023-02-13T00:16:41;103234.78;;;8.72;94.33
28004;BME280;15330;51.234;6.754;2023-02-13T00:19:07;103228.09;;;8.65;94.31
28004;BME280;15330;51.234;6.754;2023-02-13T00:21:32;103234.75;;;8.58;94.60
28004;BME280;15330;51.234;6.754;2023-02-13T00:23:57;103234.44;;;8.62;94.67
28004;BME280;15330;51.234;6.754;2023-02-13T00:26:23;103231.16;;;8.43;95.08
28004;BME280;15330;51.234;6.754;2023-02-13T00:28:49;103218.03;;;8.40;95.39
28004;BME280;15330;51.234;6.754;2023-02-13T00:31:16;103215.97;;;8.59;94.78
28004;BME280;15330;51.234;6.754;2023-02-13T00:33:42;103220.72;;;8.54;95.16
28004;BME280;15330;51.234;6.754;2023-02-13T00:36:17;103217.66;;;8.46;95.22
28004;BME280;15330;51.234;6.754;2023-02-13T00:38:43;103216.78;;;8.45;95.56
28004;BME280;15330;51.234;6.754;2023-02-13T00:41:09;103214.91;;;8.48;95.31
28004;BME280;15330;51.234;6.754;2023-02-13T00:43:35;103210.69;;;8.43;95.36
28004;BME280;15330;51.234;6.754;2023-02-13T00:46:01;103209.88;;;8.57;95.03
28004;BME280;15330;51.234;6.754;2023-02-13T00:48:28;103210.03;;;8.40;95.42
28004;BME280;15330;51.234;6.754;2023-02-13T00:50:54;103206.13;;;8.45;95.34
28004;BME280;15330;51.234;6.754;2023-02-13T00:53:21;103205.94;;;8.49;95.13
28004;BME280;15330;51.234;6.754;2023-02-13T00:55:47;103206.44;;;8.55;94.90
28004;BME280;15330;51.234;6.754;2023-02-13T00:58:13;103206.22;;;8.44;95.59
28004;BME280;15330;51.234;6.754;2023-02-13T01:00:39;103207.06;;;8.44;95.68
28004;BME280;15330;51.234;6.754;2023-02-13T01:03:05;103202.25;;;8.51;95.46
28004;BME280;15330;51.234;6.754;2023-02-13T01:05:30;103211.84;;;8.54;95.24
28004;BME280;15330;51.234;6.754;2023-02-13T01:07:56;103210.78;;;8.42;95.86
28004;BME280;15330;51.234;6.754;2023-02-13T01:10:21;103202.28;;;8.35;95.81
28004;BME280;15330;51.234;6.754;2023-02-13T01:12:47;103210.34;;;8.50;95.72
28004;BME280;15330;51.234;6.754;2023-02-13T01:15:13;103214.31;;;8.42;95.98
28004;BME280;15330;51.234;6.754;2023-02-13T01:17:38;103201.34;;;8.36;95.96
28004;BME280;15330;51.234;6.754;2023-02-13T01:20:08;103207.38;;;8.40;95.83
28004;BME280;15330;51.234;6.754;2023-02-13T01:22:34;103201.75;;;8.29;96.37
28004;BME280;15330;51.234;6.754;2023-02-13T01:25:00;103205.47;;;8.26;96.30
28004;BME280;15330;51.234;6.754;2023-02-13T01:27:26;103201.16;;;8.39;95.89
28004;BME280;15330;51.234;6.754;2023-02-13T01:29:52;103195.84;;;8.39;95.77
28004;BME280;15330;51.234;6.754;2023-02-13T01:32:17;103196.00;;;8.36;95.83
28004;BME280;15330;51.234;6.754;2023-02-13T01:34:43;103201.16;;;8.39;95.47
28004;BME280;15330;51.234;6.754;2023-02-13T01:37:08;103189.19;;;8.31;95.53
28004;BME280;15330;51.234;6.754;2023-02-13T01:39:33;103191.53;;;8.37;95.39
28004;BME280;15330;51.234;6.754;2023-02-13T01:41:59;103195.31;;;8.33;95.55
28004;BME280;15330;51.234;6.754;2023-02-13T01:44:53;103194.47;;;8.17;96.37
28004;BME280;15330;51.234;6.754;2023-02-13T01:49:57;103186.09;;;8.23;95.73
28004;BME280;15330;51.234;6.754;2023-02-13T01:52:24;103184.38;;;8.22;96.21
28004;BME280;15330;51.234;6.754;2023-02-13T01:54:50;103195.47;;;8.30;95.98
28004;BME280;15330;51.234;6.754;2023-02-13T01:57:20;103185.81;;;8.43;95.25
28004;BME280;15330;51.234;6.754;2023-02-13T01:59:52;103184.81;;;8.30;95.73
28004;BME280;15330;51.234;6.754;2023-02-13T02:02:19;103184.13;;;8.26;95.76
28004;BME280;15330;51.234;6.754;2023-02-13T02:04:46;103191.34;;;8.24;95.97
28004;BME280;15330;51.234;6.754;2023-02-13T02:07:16;103184.22;;;8.25;96.23
28004;BME280;15330;51.234;6.754;2023-02-13T02:09:44;103187.25;;;8.19;96.23
28004;BME280;15330;51.234;6.754;2023-02-13T02:14:39;103193.16;;;8.24;95.93
28004;BME280;15330;51.234;6.754;2023-02-13T02:17:05;103188.44;;;8.13;96.44
28004;BME280;15330;51.234;6.754;2023-02-13T02:19:43;103185.78;;;8.13;96.56
28004;BME280;15330;51.234;6.754;2023-02-13T02:22:37;103191.66;;;8.20;96.38
28004;BME280;15330;51.234;6.754;2023-02-13T02:33:33;103187.13;;;8.20;96.53
28004;BME280;15330;51.234;6.754;2023-02-13T02:42:01;103184.75;;;8.16;96.53
28004;BME280;15330;51.234;6.754;2023-02-13T02:47:23;103182.63;;;8.06;96.91
28004;BME280;15330;51.234;6.754;2023-02-13T02:50:15;103187.88;;;7.92;97.79
28004;BME280;15330;51.234;6.754;2023-02-13T02:52:58;103184.16;;;8.10;96.85
28004;BME280;15330;51.234;6.754;2023-02-13T02:55:34;103175.91;;;7.99;97.34
28004;BME280;15330;51.234;6.754;2023-02-13T03:00:44;103178.72;;;8.12;96.92
28004;BME280;15330;51.234;6.754;2023-02-13T03:03:31;103183.34;;;7.94;97.83
28004;BME280;15330;51.234;6.754;2023-02-13T03:06:37;103173.16;;;8.17;96.82
28004;BME280;15330;51.234;6.754;2023-02-13T03:09:09;103181.00;;;8.04;97.36
28004;BME280;15330;51.234;6.754;2023-02-13T03:11:55;103181.84;;;8.04;97.40
28004;BME280;15330;51.234;6.754;2023-02-13T03:14:39;103194.56;;;7.99;97.73
28004;BME280;15330;51.234;6.754;2023-02-13T03:17:10;103182.09;;;8.00;97.60
28004;BME280;15330;51.234;6.754;2023-02-13T03:23:16;103186.31;;;8.04;97.38
28004;BME280;15330;51.234;6.754;2023-02-13T03:26:05;103189.78;;;8.06;97.09
28004;BME280;15330;51.234;6.754;2023-02-13T03:28:53;103185.13;;;7.94;98.15
28004;BME280;15330;51.234;6.754;2023-02-13T03:31:46;103178.16;;;7.91;98.43
28004;BME280;15330;51.234;6.754;2023-02-13T03:34:17;103183.25;;;7.96;98.10
28004;BME280;15330;51.234;6.754;2023-02-13T03:36:49;103173.44;;;7.96;98.01
28004;BME280;15330;51.234;6.754;2023-02-13T03:45:00;103168.03;;;7.98;97.89
28004;BME280;15330;51.234;6.754;2023-02-13T03:47:48;103176.97;;;7.81;98.84
28004;BME280;15330;51.234;6.754;2023-02-13T03:50:15;103176.66;;;7.87;98.33
28004;BME280;15330;51.234;6.754;2023-02-13T03:52:59;103178.16;;;7.91;98.10
28004;BME280;15330;51.234;6.754;2023-02-13T03:55:30;103194.34;;;7.88;98.24
28004;BME280;15330;51.234;6.754;2023-02-13T03:58:23;103184.72;;;7.86;98.57
28004;BME280;15330;51.234;6.754;2023-02-13T04:01:12;103195.22;;;7.89;98.60
28004;BME280;15330;51.234;6.754;2023-02-13T04:03:49;103179.56;;;7.83;98.38
28004;BME280;15330;51.234;6.754;2023-02-13T04:06:19;103175.78;;;7.87;98.53
28004;BME280;15330;51.234;6.754;2023-02-13T04:08:45;103173.91;;;7.73;98.99
28004;BME280;15330;51.234;6.754;2023-02-13T04:13:57;103189.97;;;7.71;99.51
28004;BME280;15330;51.234;6.754;2023-02-13T04:16:26;103191.25;;;7.80;99.01
28004;BME280;15330;51.234;6.754;2023-02-13T04:18:54;103191.59;;;7.74;98.97
28004;BME280;15330;51.234;6.754;2023-02-13T04:21:20;103192.47;;;7.74;98.95
28004;BME280;15330;51.234;6.754;2023-02-13T04:23:46;103192.56;;;7.73;99.13
28004;BME280;15330;51.234;6.754;2023-02-13T04:26:16;103184.47;;;7.74;98.75
28004;BME280;15330;51.234;6.754;2023-02-13T04:28:42;103186.28;;;7.74;99.25
28004;BME280;15330;51.234;6.754;2023-02-13T04:31:07;103182.50;;;7.62;99.65
28004;BME280;15330;51.234;6.754;2023-02-13T04:33:33;103184.81;;;7.68;99.52
28004;BME280;15330;51.234;6.754;2023-02-13T04:35:58;103191.00;;;7.69;99.37
28004;BME280;15330;51.234;6.754;2023-02-13T04:38:23;103181.38;;;7.66;99.33
28004;BME280;15330;51.234;6.754;2023-02-13T04:40:49;103189.63;;;7.62;99.69
28004;BME280;15330;51.234;6.754;2023-02-13T04:43:14;103195.56;;;7.51;99.80
28004;BME280;15330;51.234;6.754;2023-02-13T04:45:39;103188.41;;;7.52;100.00
28004;BME280;15330;51.234;6.754;2023-02-13T04:48:05;103195.13;;;7.43;100.00
28004;BME280;15330;51.234;6.754;2023-02-13T04:50:30;103188.69;;;7.47;100.00
28004;BME280;15330;51.234;6.754;2023-02-13T04:52:57;103189.72;;;7.60;99.57
28004;BME280;15330;51.234;6.754;2023-02-13T04:55:24;103180.72;;;7.47;99.98
28004;BME280;15330;51.234;6.754;2023-02-13T04:57:56;103176.47;;;7.43;99.93
28004;BME280;15330;51.234;6.754;2023-02-13T05:00:23;103178.00;;;7.31;100.00
28004;BME280;15330;51.234;6.754;2023-02-13T05:02:48;103172.19;;;7.41;100.00
28004;BME280;15330;51.234;6.754;2023-02-13T05:05:14;103179.50;;;7.37;100.00
28004;BME280;15330;51.234;6.754;2023-02-13T05:07:40;103171.31;;;7.40;100.00
28004;BME280;15330;51.234;6.754;2023-02-13T05:10:06;103183.19;;;7.34;100.00
28004;BME280;15330;51.234;6.754;2023-02-13T05:12:32;103177.78;;;7.52;100.00
28004;BME280;15330;51.234;6.754;2023-02-13T05:14:57;103172.53;;;7.50;100.00
28004;BME280;15330;51.234;6.754;2023-02-13T05:17:22;103179.06;;;7.45;100.00
28004;BME280;15330;51.234;6.754;2023-02-13T05:19:48;103174.59;;;7.45;99.96
28004;BME280;15330;51.234;6.754;2023-02-13T05:22:13;103177.31;;;7.28;100.00
28004;BME280;15330;51.234;6.754;2023-02-13T05:24:57;103181.09;;;7.24;100.00
28004;BME280;15330;51.234;6.754;2023-02-13T05:27:22;103181.09;;;7.24;100.00
28004;BME280;15330;51.234;6.754;2023-02-13T05:29:47;103179.50;;;7.37;100.00
28004;BME280;15330;51.234;6.754;2023-02-13T05:32:13;103173.72;;;7.29;100.00
28004;BME280;15330;51.234;6.754;2023-02-13T05:34:38;103176.97;;;7.18;100.00
28004;BME280;15330;51.234;6.754;2023-02-13T05:37:03;103189.38;;;7.35;100.00
28004;BME280;15330;51.234;6.754;2023-02-13T05:39:29;103180.41;;;7.20;100.00
28004;BME280;15330;51.234;6.754;2023-02-13T05:41:54;103183.22;;;7.17;100.00
28004;BME280;15330;51.234;6.754;2023-02-13T05:44:19;103174.56;;;7.14;100.00
28004;BME280;15330;51.234;6.754;2023-02-13T05:46:45;103178.69;;;7.19;100.00
28004;BME280;15330;51.234;6.754;2023-02-13T05:49:11;103172.50;;;7.19;100.00
28004;BME280;15330;51.234;6.754;2023-02-13T05:51:38;103176.97;;;7.18;100.00
28004;BME280;15330;51.234;6.754;2023-02-13T05:54:03;103171.47;;;7.21;100.00
28004;BME280;15330;51.234;6.754;2023-02-13T05:56:28;103187.25;;;7.09;100.00
28004;BME280;15330;51.234;6.754;2023-02-13T05:58:54;103183.56;;;7.11;100.00
28004;BME280;15330;51.234;6.754;2023-02-13T06:01:21;103172.84;;;7.13;100.00
28004;BME280;15330;51.234;6.754;2023-02-13T06:03:46;103166.31;;;7.18;100.00
28004;BME280;15330;51.234;6.754;2023-02-13T06:06:12;103171.47;;;7.21;100.00
28004;BME280;15330;51.234;6.754;2023-02-13T06:08:37;103168.81;;;7.21;100.00
28004;BME280;15330;51.234;6.754;2023-02-13T06:11:03;103161.53;;;7.25;100.00
28004;BME280;15330;51.234;6.754;2023-02-13T06:13:28;103161.94;;;7.17;100.00
28004;BME280;15330;51.234;6.754;2023-02-13T06:15:54;103162.28;;;7.11;100.00
28004;BME280;15330;51.234;6.754;2023-02-13T06:18:19;103168.53;;;7.10;100.00
28004;BME280;15330;51.234;6.754;2023-02-13T06:20:44;103159.38;;;7.16;100.00
28004;BME280;15330;51.234;6.754;2023-02-13T06:23:10;103156.88;;;7.13;100.00
28004;BME280;15330;51.234;6.754;2023-02-13T06:25:35;103149.31;;;7.05;100.00
28004;BME280;15330;51.234;6.754;2023-02-13T06:28:01;103165.00;;;7.10;100.00
28004;BME280;15330;51.234;6.754;2023-02-13T06:30:27;103156.16;;;7.09;100.00
28004;BME280;15330;51.234;6.754;2023-02-13T06:32:52;103166.16;;;7.06;100.00
28004;BME280;15330;51.234;6.754;2023-02-13T06:35:18;103162.63;;;7.05;100.00
28004;BME280;15330;51.234;6.754;2023-02-13T06:37:43;103156.44;;;7.05;100.00
28004;BME280;15330;51.234;6.754;2023-02-13T06:40:10;103168.69;;;7.07;100.00
28004;BME280;15330;51.234;6.754;2023-02-13T06:42:35;103157.88;;;7.10;100.00
28004;BME280;15330;51.234;6.754;2023-02-13T06:45:01;103180.38;;;7.05;100.00
28004;BME280;15330;51.234;6.754;2023-02-13T06:47:26;103169.13;;;6.99;100.00
28004;BME280;15330;51.234;6.754;2023-02-13T06:49:52;103159.78;;;7.08;100.00
28004;BME280;15330;51.234;6.754;2023-02-13T06:52:18;103164.13;;;7.26;100.00
28004;BME280;15330;51.234;6.754;2023-02-13T06:54:43;103160.66;;;7.40;98.73
28004;BME280;15330;51.234;6.754;2023-02-13T06:57:09;103167.78;;;7.24;100.00
28004;BME280;15330;51.234;6.754;2023-02-13T06:59:34;103163.44;;;8.00;98.24
28004;BME280;15330;51.234;6.754;2023-02-13T07:02:00;103155.50;;;7.21;98.80
28004;BME280;15330;51.234;6.754;2023-02-13T07:04:26;103158.34;;;7.34;98.75
28004;BME280;15330;51.234;6.754;2023-02-13T07:06:55;103169.09;;;7.32;98.66
28004;BME280;15330;51.234;6.754;2023-02-13T07:09:22;103159.69;;;7.10;100.00
28004;BME280;15330;51.234;6.754;2023-02-13T07:11:48;103170.47;;;7.24;99.93
28004;BME280;15330;51.234;6.754;2023-02-13T07:14:13;103162.97;;;7.30;99.54
28004;BME280;15330;51.234;6.754;2023-02-13T07:16:39;103178.38;;;7.41;98.62
28004;BME280;15330;51.234;6.754;2023-02-13T07:19:04;103164.53;;;7.50;98.65
28004;BME280;15330;51.234;6.754;2023-02-13T07:21:29;103164.13;;;8.19;95.29
28004;BME280;15330;51.234;6.754;2023-02-13T07:23:55;103167.63;;;8.35;95.78
28004;BME280;15330;51.234;6.754;2023-02-13T07:26:20;103168.69;;;8.47;94.17
28004;BME280;15330;51.234;6.754;2023-02-13T07:28:45;103170.75;;;9.00;91.79
28004;BME280;15330;51.234;6.754;2023-02-13T07:31:11;103171.78;;;9.26;90.32
28004;BME280;15330;51.234;6.754;2023-02-13T07:33:36;103178.28;;;8.79;91.33
28004;BME280;15330;51.234;6.754;2023-02-13T07:36:02;103179.06;;;9.10;90.90
28004;BME280;15330;51.234;6.754;2023-02-13T07:38:28;103174.19;;;9.31;89.59
28004;BME280;15330;51.234;6.754;2023-02-13T07:40:57;103180.00;;;8.95;89.31
28004;BME280;15330;51.234;6.754;2023-02-13T07:43:23;103177.31;;;9.78;87.03
28004;BME280;15330;51.234;6.754;2023-02-13T07:45:49;103178.31;;;9.63;87.09
28004;BME280;15330;51.234;6.754;2023-02-13T07:48:14;103186.09;;;10.34;84.37
28004;BME280;15330;51.234;6.754;2023-02-13T07:50:40;103182.91;;;10.15;85.03
28004;BME280;15330;51.234;6.754;2023-02-13T07:53:05;103186.50;;;10.01;84.75
28004;BME280;15330;51.234;6.754;2023-02-13T07:55:30;103190.09;;;10.92;82.09
28004;BME280;15330;51.234;6.754;2023-02-13T07:57:59;103187.88;;;10.98;80.39
28004;BME280;15330;51.234;6.754;2023-02-13T08:00:24;103200.50;;;10.58;81.93
28004;BME280;15330;51.234;6.754;2023-02-13T08:02:50;103189.81;;;11.46;78.19
28004;BME280;15330;51.234;6.754;2023-02-13T08:05:15;103188.97;;;11.32;78.13
28004;BME280;15330;51.234;6.754;2023-02-13T08:07:41;103176.75;;;12.25;77.64
28004;BME280;15330;51.234;6.754;2023-02-13T08:10:07;103186.66;;;11.28;78.91
28004;BME280;15330;51.234;6.754;2023-02-13T08:12:52;103194.81;;;10.76;80.86
28004;BME280;15330;51.234;6.754;2023-02-13T08:15:18;103196.88;;;11.59;77.53
28004;BME280;15330;51.234;6.754;2023-02-13T08:17:44;103190.66;;;12.54;73.84
28004;BME280;15330;51.234;6.754;2023-02-13T08:20:09;103184.84;;;11.16;78.69
28004;BME280;15330;51.234;6.754;2023-02-13T08:22:36;103185.50;;;12.16;74.98
28004;BME280;15330;51.234;6.754;2023-02-13T08:25:02;103191.69;;;10.17;82.20
28004;BME280;15330;51.234;6.754;2023-02-13T08:27:28;103192.88;;;12.01;73.80
28004;BME280;15330;51.234;6.754;2023-02-13T08:29:55;103195.56;;;10.65;78.70
28004;BME280;15330;51.234;6.754;2023-02-13T08:32:22;103192.63;;;12.04;74.66
28004;BME280;15330;51.234;6.754;2023-02-13T08:34:47;103199.16;;;12.48;73.04
28004;BME280;15330;51.234;6.754;2023-02-13T08:37:13;103196.09;;;11.70;74.99
28004;BME280;15330;51.234;6.754;2023-02-13T08:39:38;103200.69;;;11.31;76.14
28004;BME280;15330;51.234;6.754;2023-02-13T08:42:03;103204.66;;;11.26;75.95
28004;BME280;15330;51.234;6.754;2023-02-13T08:44:29;103190.28;;;11.27;76.67
28004;BME280;15330;51.234;6.754;2023-02-13T08:46:54;103206.44;;;10.37;79.49
28004;BME280;15330;51.234;6.754;2023-02-13T08:49:20;103202.94;;;10.74;79.38
28004;BME280;15330;51.234;6.754;2023-02-13T08:51:45;103192.09;;;11.39;77.16
28004;BME280;15330;51.234;6.754;2023-02-13T08:54:11;103202.38;;;12.64;72.86
28004;BME280;15330;51.234;6.754;2023-02-13T08:56:36;103199.66;;;13.21;70.00
28004;BME280;15330;51.234;6.754;2023-02-13T08:59:02;103195.69;;;12.00;71.80
28004;BME280;15330;51.234;6.754;2023-02-13T09:01:27;103210.28;;;12.20;73.45
28004;BME280;15330;51.234;6.754;2023-02-13T09:03:52;103191.78;;;12.74;72.27
28004;BME280;15330;51.234;6.754;2023-02-13T09:06:19;103197.28;;;12.83;72.11
28004;BME280;15330;51.234;6.754;2023-02-13T09:08:44;103189.41;;;11.39;75.33
28004;BME280;15330;51.234;6.754;2023-02-13T09:11:09;103190.94;;;12.38;71.86
28004;BME280;15330;51.234;6.754;2023-02-13T09:13:35;103191.94;;;12.95;69.85
28004;BME280;15330;51.234;6.754;2023-02-13T09:16:06;103191.25;;;13.37;68.75
28004;BME280;15330;51.234;6.754;2023-02-13T09:18:32;103196.06;;;13.77;66.84
28004;BME280;15330;51.234;6.754;2023-02-13T09:21:03;103200.44;;;12.77;68.49
28004;BME280;15330;51.234;6.754;2023-02-13T09:23:34;103197.56;;;13.70;65.27
28004;BME280;15330;51.234;6.754;2023-02-13T09:26:05;103201.13;;;14.34;63.45
28004;BME280;15330;51.234;6.754;2023-02-13T09:28:32;103198.00;;;14.18;64.30
28004;BME280;15330;51.234;6.754;2023-02-13T09:30:58;103203.38;;;16.21;58.66
28004;BME280;15330;51.234;6.754;2023-02-13T09:33:25;103197.38;;;16.56;56.14
28004;BME280;15330;51.234;6.754;2023-02-13T09:35:51;103194.97;;;16.53;55.57
28004;BME280;15330;51.234;6.754;2023-02-13T09:38:16;103195.75;;;17.56;53.73
28004;BME280;15330;51.234;6.754;2023-02-13T09:41:04;103190.75;;;15.53;55.61
28004;BME280;15330;51.234;6.754;2023-02-13T09:43:34;103199.31;;;18.55;49.73
28004;BME280;15330;51.234;6.754;2023-02-13T09:46:08;103203.13;;;15.55;57.18
28004;BME280;15330;51.234;6.754;2023-02-13T09:48:36;103199.31;;;17.57;51.38
28004;BME280;15330;51.234;6.754;2023-02-13T09:51:03;103197.38;;;17.77;50.51
28004;BME280;15330;51.234;6.754;2023-02-13T09:53:30;103202.38;;;16.12;51.99
28004;BME280;15330;51.234;6.754;2023-02-13T10:01:03;103200.41;;;21.51;42.29
28004;BME280;15330;51.234;6.754;2023-02-13T10:03:36;103201.81;;;20.59;42.49
28004;BME280;15330;51.234;6.754;2023-02-13T10:06:23;103208.41;;;22.14;39.96
28004;BME280;15330;51.234;6.754;2023-02-13T10:09:00;103198.16;;;21.23;40.53
28004;BME280;15330;51.234;6.754;2023-02-13T10:17:44;103198.75;;;24.60;34.63
28004;BME280;15330;51.234;6.754;2023-02-13T10:22:58;103202.66;;;22.32;36.51
28004;BME280;15330;51.234;6.754;2023-02-13T10:25:29;103197.16;;;23.66;35.15
28004;BME280;15330;51.234;6.754;2023-02-13T10:28:04;103195.44;;;25.81;32.08
28004;BME280;15330;51.234;6.754;2023-02-13T10:30:33;103196.41;;;26.35;30.83
28004;BME280;15330;51.234;6.754;2023-02-13T10:33:15;103201.53;;;21.65;36.63
28004;BME280;15330;51.234;6.754;2023-02-13T10:36:24;103200.94;;;21.46;37.63
28004;BME280;15330;51.234;6.754;2023-02-13T10:41:51;103199.44;;;22.28;36.98
28004;BME280;15330;51.234;6.754;2023-02-13T11:00:25;103194.38;;;21.64;36.53
28004;BME280;15330;51.234;6.754;2023-02-13T11:02:55;103176.53;;;23.85;34.58
28004;BME280;15330;51.234;6.754;2023-02-13T11:05:24;103183.09;;;24.26;33.81
28004;BME280;15330;51.234;6.754;2023-02-13T11:07:50;103177.47;;;23.26;34.96
28004;BME280;15330;51.234;6.754;2023-02-13T11:10:21;103178.03;;;20.53;39.01
28004;BME280;15330;51.234;6.754;2023-02-13T11:12:47;103174.13;;;24.18;33.48
28004;BME280;15330;51.234;6.754;2023-02-13T11:17:49;103165.50;;;19.53;41.52
28004;BME280;15330;51.234;6.754;2023-02-13T11:20:44;103158.97;;;22.55;35.67
28004;BME280;15330;51.234;6.754;2023-02-13T11:26:06;103144.47;;;20.93;39.06
28004;BME280;15330;51.234;6.754;2023-02-13T11:29:00;103149.72;;;19.15;41.74
28004;BME280;15330;51.234;6.754;2023-02-13T11:31:33;103141.97;;;19.86;40.41
28004;BME280;15330;51.234;6.754;2023-02-13T11:34:26;103139.59;;;17.23;46.45
28004;BME280;15330;51.234;6.754;2023-02-13T11:36:52;103138.44;;;19.35;42.85
28004;BME280;15330;51.234;6.754;2023-02-13T11:39:24;103147.28;;;17.90;44.62
28004;BME280;15330;51.234;6.754;2023-02-13T11:41:50;103140.94;;;17.64;45.87
28004;BME280;15330;51.234;6.754;2023-02-13T11:44:30;103139.13;;;17.00;47.39
28004;BME280;15330;51.234;6.754;2023-02-13T11:46:58;103134.13;;;16.96;48.02
28004;BME280;15330;51.234;6.754;2023-02-13T11:51:54;103131.81;;;16.64;50.32
28004;BME280;15330;51.234;6.754;2023-02-13T11:54:35;103136.28;;;18.10;47.09
28004;BME280;15330;51.234;6.754;2023-02-13T11:59:45;103119.09;;;18.19;46.28
28004;BME280;15330;51.234;6.754;2023-02-13T12:02:14;103122.28;;;18.14;46.19
28004;BME280;15330;51.234;6.754;2023-02-13T12:04:40;103113.41;;;16.86;47.67
28004;BME280;15330;51.234;6.754;2023-02-13T12:12:41;103106.72;;;16.25;50.12
28004;BME280;15330;51.234;6.754;2023-02-13T12:15:18;103103.47;;;15.63;52.08
28004;BME280;15330;51.234;6.754;2023-02-13T12:17:46;103099.63;;;15.16;52.83
28004;BME280;15330;51.234;6.754;2023-02-13T12:20:16;103106.25;;;15.42;52.87
28004;BME280;15330;51.234;6.754;2023-02-13T12:32:09;103082.25;;;16.82;48.76
28004;BME280;15330;51.234;6.754;2023-02-13T12:37:54;103081.84;;;14.64;53.66
28004;BME280;15330;51.234;6.754;2023-02-13T13:18:30;103048.50;;;15.64;51.65
28004;BME280;15330;51.234;6.754;2023-02-13T13:23:44;103029.44;;;16.51;49.77
28004;BME280;15330;51.234;6.754;2023-02-13T13:28:52;103034.53;;;16.64;49.50
28004;BME280;15330;51.234;6.754;2023-02-13T13:31:19;103036.78;;;16.22;50.29
28004;BME280;15330;51.234;6.754;2023-02-13T13:33:46;103028.19;;;16.82;49.90
28004;BME280;15330;51.234;6.754;2023-02-13T13:39:31;103027.31;;;16.82;48.96
28004;BME280;15330;51.234;6.754;2023-02-13T13:42:55;103032.16;;;17.33;48.47
28004;BME280;15330;51.234;6.754;2023-02-13T13:45:17;103024.63;;;17.09;49.48
28004;BME280;15330;51.234;6.754;2023-02-13T13:50:23;103018.34;;;16.91;48.48
28004;BME280;15330;51.234;6.754;2023-02-13T13:58:44;103011.88;;;17.02;48.55
28004;BME280;15330;51.234;6.754;2023-02-13T14:03:38;103004.00;;;17.26;47.75
28004;BME280;15330;51.234;6.754;2023-02-13T14:06:06;102997.94;;;16.32;49.59
28004;BME280;15330;51.234;6.754;2023-02-13T14:11:06;102992.81;;;15.83;50.53
28004;BME280;15330;51.234;6.754;2023-02-13T14:13:48;102982.69;;;16.04;50.03
28004;BME280;15330;51.234;6.754;2023-02-13T14:16:41;102997.28;;;16.58;50.08
28004;BME280;15330;51.234;6.754;2023-02-13T14:19:30;102993.03;;;16.18;50.47
28004;BME280;15330;51.234;6.754;2023-02-13T14:24:50;102990.53;;;16.81;48.32
28004;BME280;15330;51.234;6.754;2023-02-13T14:29:53;102992.56;;;16.69;48.85
28004;BME280;15330;51.234;6.754;2023-02-13T14:32:33;102984.06;;;16.55;49.12
28004;BME280;15330;51.234;6.754;2023-02-13T14:35:02;102983.41;;;16.43;49.54
28004;BME280;15330;51.234;6.754;2023-02-13T14:37:35;102991.56;;;16.70;48.93
28004;BME280;15330;51.234;6.754;2023-02-13T14:42:36;102981.78;;;15.66;51.01
28004;BME280;15330;51.234;6.754;2023-02-13T14:45:04;102970.16;;;16.12;50.40
28004;BME280;15330;51.234;6.754;2023-02-13T14:47:40;102973.81;;;15.36;51.52
28004;BME280;15330;51.234;6.754;2023-02-13T14:50:15;102972.13;;;16.10;50.40
28004;BME280;15330;51.234;6.754;2023-02-13T14:52:43;102974.16;;;15.99;50.44
28004;BME280;15330;51.234;6.754;2023-02-13T14:55:16;102970.78;;;16.34;50.83
28004;BME280;15330;51.234;6.754;2023-02-13T15:01:22;102969.78;;;15.98;50.36
28004;BME280;15330;51.234;6.754;2023-02-13T15:03:53;102967.22;;;16.33;49.72
28004;BME280;15330;51.234;6.754;2023-02-13T15:06:29;102965.75;;;16.11;50.17
28004;BME280;15330;51.234;6.754;2023-02-13T15:09:00;102953.56;;;16.07;50.28
28004;BME280;15330;51.234;6.754;2023-02-13T15:11:38;102959.03;;;15.69;50.52
28004;BME280;15330;51.234;6.754;2023-02-13T15:14:35;102964.84;;;15.74;50.37
28004;BME280;15330;51.234;6.754;2023-02-13T15:19:31;102956.16;;;15.90;50.27
28004;BME280;15330;51.234;6.754;2023-02-13T15:22:01;102953.88;;;15.95;50.92
28004;BME280;15330;51.234;6.754;2023-02-13T15:24:43;102952.06;;;15.47;51.57
28004;BME280;15330;51.234;6.754;2023-02-13T15:27:24;102952.78;;;15.59;51.22
28004;BME280;15330;51.234;6.754;2023-02-13T15:32:29;102947.50;;;15.48;51.33
28004;BME280;15330;51.234;6.754;2023-02-13T15:34:56;102946.66;;;15.09;51.27
28004;BME280;15330;51.234;6.754;2023-02-13T15:37:23;102956.47;;;15.19;52.13
28004;BME280;15330;51.234;6.754;2023-02-13T15:39:49;102950.94;;;15.11;52.74
28004;BME280;15330;51.234;6.754;2023-02-13T15:42:14;102955.03;;;14.96;52.00
28004;BME280;15330;51.234;6.754;2023-02-13T15:44:40;102948.09;;;14.93;52.62
28004;BME280;15330;51.234;6.754;2023-02-13T15:47:22;102945.22;;;14.85;52.60
28004;BME280;15330;51.234;6.754;2023-02-13T15:49:51;102945.50;;;14.73;53.32
28004;BME280;15330;51.234;6.754;2023-02-13T15:52:29;102948.44;;;14.60;53.13
28004;BME280;15330;51.234;6.754;2023-02-13T15:54:56;102945.72;;;14.50;53.30
28004;BME280;15330;51.234;6.754;2023-02-13T15:57:22;102947.16;;;14.64;53.10
28004;BME280;15330;51.234;6.754;2023-02-13T15:59:48;102943.00;;;14.41;53.18
28004;BME280;15330;51.234;6.754;2023-02-13T16:02:20;102945.88;;;14.58;53.27
28004;BME280;15330;51.234;6.754;2023-02-13T16:04:48;102953.66;;;14.52;53.90